Time;durP1;ratioP1;P1;durP2;ratioP2;P2;SDS_P1;SDS_P2;PMS_P1;PMS_P2;Temp;Humidity;BMP_temperature;BMP_pressure;BME280_temperature;BME280_humidity;BME280_pressure;Samples;Min_cycle;Max_cycle;Signal;HPM_P1;HPM_P2
2021/04/28 00:01:39;;;;;;;;;;;;;;;-144.99;66.95;52195.34;5046514;28;19951;-64
2021/04/28 00:04:05;;;;;;;;;;;;;;;-144.99;66.77;52185.16;5049364;28;20508;-64
2021/04/28 00:06:30;;;;;;;;;;;;;;;-144.99;66.58;52170.91;5048913;28;19946;-61
2021/04/28 00:08:56;;;;;;;;;;;;;;;-144.99;66.38;52150.53;5049274;28;19964;-61
2021/04/28 00:11:26;;;;;;;;;;;;;;;-144.99;66.32;52146.44;5048992;28;20006;-63
2021/04/28 00:13:52;;;;;;;;;;;;;;;-144.99;66.33;52207.59;5052344;28;20407;-63
2021/04/28 00:16:20;;;;;;;;;;;;;;;-144.99;66.48;52195.34;5051283;28;19964;-63
2021/04/28 00:18:46;;;;;;;;;;;;;;;-144.99;66.46;52191.28;5046784;28;19968;-64
2021/04/28 00:21:13;;;;;;;;;;;;;;;-144.99;66.13;52219.81;5050710;28;19949;-64
2021/04/28 00:23:39;;;;;;;;;;;;;;;-144.99;66.39;52187.19;5053074;28;19967;-63
2021/04/28 00:26:05;;;;;;;;;;;;;;;-144.99;66.18;52203.50;5053632;28;19956;-62
2021/04/28 00:28:34;;;;;;;;;;;;;;;-144.99;66.18;52166.81;5051607;28;19961;-63
2021/04/28 00:31:03;;;;;;;;;;;;;;;-144.99;66.21;52199.44;5052383;28;19964;-63
2021/04/28 00:33:32;;;;;;;;;;;;;;;-144.99;65.96;52166.81;5053200;28;19947;-62
2021/04/28 00:35:58;;;;;;;;;;;;;;;-144.99;65.98;52187.19;5053408;28;19953;-62
2021/04/28 00:38:23;;;;;;;;;;;;;;;-144.99;65.92;52172.94;5046578;28;20067;-63
2021/04/28 00:40:49;;;;;;;;;;;;;;;-144.99;65.82;52199.44;5052577;28;20450;-63
2021/04/28 00:43:16;;;;;;;;;;;;;;;-144.99;65.81;52215.75;5051761;28;19988;-64
2021/04/28 00:45:43;;;;;;;;;;;;;;;-144.99;65.73;52193.31;5052013;28;19946;-64
2021/04/28 00:48:11;;;;;;;;;;;;;;;-144.99;65.88;52166.81;5048955;28;20043;-64
2021/04/28 00:50:38;;;;;;;;;;;;;;;-144.99;66.00;52170.91;5048129;28;19946;-64
2021/04/28 00:53:07;;;;;;;;;;;;;;;-144.99;65.86;52179.06;5052930;28;19949;-62
2021/04/28 00:55:34;;;;;;;;;;;;;;;-144.99;65.95;52193.31;5049085;28;19993;-61
2021/04/28 00:58:00;;;;;;;;;;;;;;;-144.99;66.23;52213.69;5051371;28;19971;-62
2021/04/28 01:00:29;;;;;;;;;;;;;;;-144.99;65.94;52158.66;5052384;28;20317;-63
2021/04/28 01:02:55;;;;;;;;;;;;;;;-144.99;66.16;52154.59;5052631;28;19965;-63
2021/04/28 01:05:21;;;;;;;;;;;;;;;-144.99;65.98;52187.19;5052571;28;19951;-62
2021/04/28 01:07:48;;;;;;;;;;;;;;;-144.99;65.98;52227.97;5052009;28;19960;-63
2021/04/28 01:10:16;;;;;;;;;;;;;;;-144.99;65.80;52207.59;5051803;28;19948;-63
2021/04/28 01:12:41;;;;;;;;;;;;;;;-144.99;65.64;52191.28;5052300;28;20234;-60
2021/04/28 01:15:09;;;;;;;;;;;;;;;-144.99;65.57;52183.13;5051678;28;20079;-60
2021/04/28 01:17:37;;;;;;;;;;;;;;;-144.99;65.77;52187.19;5051177;28;19955;-60
2021/04/28 01:20:05;;;;;;;;;;;;;;;-144.99;65.78;52179.06;5051342;28;19955;-59
2021/04/28 01:22:35;;;;;;;;;;;;;;;-144.99;65.82;52179.06;5051873;28;19961;-59
2021/04/28 01:25:01;;;;;;;;;;;;;;;-144.99;65.78;52179.06;5046578;28;20215;-60
2021/04/28 01:27:30;;;;;;;;;;;;;;;-144.99;65.59;52199.44;5051857;28;19970;-62
2021/04/28 01:29:56;;;;;;;;;;;;;;;-144.99;65.56;52211.66;5051237;28;19944;-62
2021/04/28 01:32:23;;;;;;;;;;;;;;;-144.99;65.71;52205.53;5048212;28;19961;-61
2021/04/28 01:34:55;;;;;;;;;;;;;;;-144.99;65.79;52162.75;5050839;28;19946;-61
2021/04/28 01:37:25;;;;;;;;;;;;;;;-144.99;65.71;52174.97;5052417;28;19993;-61
2021/04/28 01:39:55;;;;;;;;;;;;;;;-144.99;65.86;52195.34;5051463;28;19964;-61
2021/04/28 01:42:21;;;;;;;;;;;;;;;-144.99;65.79;52193.31;5049726;28;19951;-62
2021/04/28 01:44:51;;;;;;;;;;;;;;;-144.99;66.03;52193.31;5050594;28;19962;-61
2021/04/28 01:47:19;;;;;;;;;;;;;;;-144.99;66.05;52211.66;5051340;28;19951;-61
2021/04/28 01:49:47;;;;;;;;;;;;;;;-144.99;66.35;52211.66;5051771;28;20017;-60
2021/04/28 01:52:17;;;;;;;;;;;;;;;-144.99;65.95;52183.13;5043702;28;19945;-59
2021/04/28 01:54:45;;;;;;;;;;;;;;;-144.99;65.99;52170.91;5051432;28;20006;-62
2021/04/28 01:57:12;;;;;;;;;;;;;;;-144.99;65.85;52187.19;5050660;28;19959;-61
2021/04/28 01:59:39;;;;;;;;;;;;;;;-144.99;65.88;52195.34;5050793;28;20453;-62
2021/04/28 02:02:08;;;;;;;;;;;;;;;-144.99;65.69;52199.44;5049858;28;20306;-62
2021/04/28 02:04:35;;;;;;;;;;;;;;;-144.99;65.63;52172.94;5051239;28;19962;-61
2021/04/28 02:07:01;;;;;;;;;;;;;;;-144.99;65.59;52199.44;5051046;28;19957;-62
2021/04/28 02:09:27;;;;;;;;;;;;;;;-144.99;65.71;52232.03;5050881;28;19967;-63
2021/04/28 02:11:53;;;;;;;;;;;;;;;-144.99;65.72;52215.75;5048755;28;19948;-62
2021/04/28 02:14:21;;;;;;;;;;;;;;;-144.99;65.59;52199.44;5051553;28;19954;-62
2021/04/28 02:16:50;;;;;;;;;;;;;;;-144.99;65.57;52199.44;5050429;28;19979;-64
2021/04/28 02:19:16;;;;;;;;;;;;;;;-144.99;65.50;52240.19;5050660;28;19969;-62
2021/04/28 02:21:47;;;;;;;;;;;;;;;-144.99;65.54;52166.81;5050126;28;19950;-63
2021/04/28 02:24:14;;;;;;;;;;;;;;;-144.99;65.49;52195.34;5049044;28;19993;-63
2021/04/28 02:26:40;;;;;;;;;;;;;;;-144.99;65.46;52162.75;5043192;28;19952;-60
2021/04/28 02:29:06;;;;;;;;;;;;;;;-144.99;65.61;52187.19;5050296;28;20412;-61
2021/04/28 02:31:33;;;;;;;;;;;;;;;-144.99;65.48;52154.59;5049458;28;19969;-60
2021/04/28 02:34:02;;;;;;;;;;;;;;;-144.99;65.43;52179.06;5050822;28;19957;-62
2021/04/28 02:36:32;;;;;;;;;;;;;;;-144.99;65.36;52187.19;5049979;28;19958;-61
2021/04/28 02:39:02;;;;;;;;;;;;;;;-144.99;65.34;52166.81;5050220;28;20122;-62
2021/04/28 02:41:31;;;;;;;;;;;;;;;-144.99;65.27;52183.13;5049367;28;19948;-62
2021/04/28 02:43:58;;;;;;;;;;;;;;;-144.99;65.46;52195.34;5049741;28;19963;-61
2021/04/28 02:46:24;;;;;;;;;;;;;;;-144.99;65.22;52195.34;5050030;28;19962;-61
2021/04/28 02:48:57;;;;;;;;;;;;;;;-144.99;65.20;52187.19;5050065;28;20006;-61
2021/04/28 02:51:23;;;;;;;;;;;;;;;-144.99;65.23;52179.06;5050120;28;20434;-60
2021/04/28 02:53:49;;;;;;;;;;;;;;;-144.99;65.36;52195.34;5050614;28;19952;-62
2021/04/28 02:56:15;;;;;;;;;;;;;;;-144.99;65.80;52207.59;5048877;28;19961;-58
2021/04/28 02:58:41;;;;;;;;;;;;;;;-144.99;65.88;52191.28;5045704;28;19965;-57
2021/04/28 03:01:08;;;;;;;;;;;;;;;-144.99;65.86;52209.63;5050251;28;19969;-58
2021/04/28 03:03:34;;;;;;;;;;;;;;;-144.99;65.92;52195.34;5050224;28;20344;-57
2021/04/28 03:06:01;;;;;;;;;;;;;;;-144.99;66.02;52195.34;5050409;28;19991;-58
2021/04/28 03:08:27;;;;;;;;;;;;;;;-144.99;66.21;52181.09;5046723;28;19972;-59
2021/04/28 03:10:53;;;;;;;;;;;;;;;-144.99;65.95;52193.31;5049874;28;19959;-58
2021/04/28 03:13:19;;;;;;;;;;;;;;;-144.99;66.18;52236.13;5049882;28;19968;-59
2021/04/28 03:15:47;;;;;;;;;;;;;;;-144.99;66.06;52203.50;5049490;28;20413;-59
2021/04/28 03:18:13;;;;;;;;;;;;;;;-144.99;65.96;52215.75;5049033;28;20013;-60
2021/04/28 03:20:42;;;;;;;;;;;;;;;-144.99;65.82;52223.88;5049842;28;19945;-59
2021/04/28 03:23:12;;;;;;;;;;;;;;;-144.99;65.89;52203.50;5048792;28;19990;-60
2021/04/28 03:25:38;;;;;;;;;;;;;;;-144.99;65.88;52195.34;5049917;28;19965;-63
2021/04/28 03:28:04;;;;;;;;;;;;;;;-144.99;65.75;52191.28;5043930;28;19977;-63
2021/04/28 03:30:30;;;;;;;;;;;;;;;-144.99;65.70;52199.44;5048215;28;20348;-63
2021/04/28 03:32:59;;;;;;;;;;;;;;;-144.99;66.00;52215.75;5050084;28;19958;-64
2021/04/28 03:35:27;;;;;;;;;;;;;;;-144.99;65.99;52183.13;5049781;28;20223;-63
2021/04/28 03:37:56;;;;;;;;;;;;;;;-144.99;65.95;52191.28;5043472;28;19970;-65
2021/04/28 03:40:25;;;;;;;;;;;;;;;-144.99;66.13;52207.59;5049852;28;19958;-64
2021/04/28 03:42:51;;;;;;;;;;;;;;;-144.99;65.88;52203.50;5049833;28;19965;-64
2021/04/28 03:45:20;;;;;;;;;;;;;;;-144.99;66.04;52146.44;5049674;28;19953;-63
2021/04/28 03:47:45;;;;;;;;;;;;;;;-144.99;66.14;52227.97;5049918;28;20428;-59
2021/04/28 03:50:14;;;;;;;;;;;;;;;-144.99;66.02;52203.50;5051820;28;19946;-59
2021/04/28 03:52:40;;;;;;;;;;;;;;;-144.99;65.79;52158.66;5053715;28;19952;-58
2021/04/28 03:55:07;;;;;;;;;;;;;;;-144.99;65.80;52183.13;5053487;28;19992;-57
2021/04/28 03:57:37;;;;;;;;;;;;;;;-144.99;65.61;52199.44;5053089;28;19954;-58
2021/04/28 04:00:03;;;;;;;;;;;;;;;-144.99;65.68;52201.47;5052370;28;20408;-57
2021/04/28 04:02:32;;;;;;;;;;;;;;;-144.99;65.65;52191.28;5046262;28;19946;-58
2021/04/28 04:05:01;;;;;;;;;;;;;;;-144.99;65.72;52203.50;5054283;28;20451;-61
2021/04/28 04:07:30;;;;;;;;;;;;;;;-144.99;65.59;52219.81;5052319;28;19948;-60
2021/04/28 04:09:56;;;;;;;;;;;;;;;-144.99;65.61;52211.66;5052604;28;20465;-60
2021/04/28 04:12:21;;;;;;;;;;;;;;;-144.99;65.49;52227.97;5053233;28;19955;-60
2021/04/28 04:14:48;;;;;;;;;;;;;;;-144.99;65.35;52185.16;5053432;28;19952;-60
2021/04/28 04:17:17;;;;;;;;;;;;;;;-144.99;65.19;52193.31;5046301;28;20428;-68
2021/04/28 04:19:42;;;;;;;;;;;;;;;-144.99;65.19;52211.66;5052871;28;20381;-62
2021/04/28 04:22:08;;;;;;;;;;;;;;;-144.99;66.26;52199.44;5050413;28;19946;-64
2021/04/28 04:24:41;;;;;;;;;;;;;;;-144.99;66.74;52168.84;5052604;28;19978;-62
2021/04/28 04:27:10;;;;;;;;;;;;;;;-144.99;66.54;52236.13;5049113;28;19945;-63
2021/04/28 04:29:36;;;;;;;;;;;;;;;-144.99;66.27;52215.75;5052630;28;19964;-63
2021/04/28 04:32:06;;;;;;;;;;;;;;;-144.99;67.54;52193.31;5052675;28;19945;-64
2021/04/28 04:34:32;;;;;;;;;;;;;;;-144.99;65.68;52183.13;5053526;28;19949;-64
2021/04/28 04:37:01;;;;;;;;;;;;;;;-144.99;64.49;52195.34;5049828;28;19947;-63
2021/04/28 04:39:32;;;;;;;;;;;;;;;-144.99;65.38;52170.91;5052353;28;20023;-63
2021/04/28 04:41:58;;;;;;;;;;;;;;;-144.99;64.19;52207.59;5052855;28;19948;-63
2021/04/28 04:44:26;;;;;;;;;;;;;;;-144.99;63.60;52146.44;5052394;28;20498;-64
2021/04/28 04:46:52;;;;;;;;;;;;;;;-144.99;63.37;52179.06;5051937;28;20033;-63
2021/04/28 04:49:20;;;;;;;;;;;;;;;-144.99;63.89;52195.34;5053913;28;20004;-65
2021/04/28 04:51:49;;;;;;;;;;;;;;;-144.99;63.00;52195.34;5054554;28;19948;-67
2021/04/28 04:54:17;;;;;;;;;;;;;;;-144.99;62.20;52183.13;5054583;28;20001;-65
2021/04/28 04:56:46;;;;;;;;;;;;;;;-144.99;62.50;52195.34;5052769;28;19956;-65
2021/04/28 04:59:14;;;;;;;;;;;;;;;-144.99;62.60;52191.28;5045547;28;19967;-62
2021/04/28 05:01:40;;;;;;;;;;;;;;;-144.99;62.43;52164.78;5052301;28;19957;-61
2021/04/28 05:04:06;;;;;;;;;;;;;;;-144.99;62.46;52166.81;4002030;28;10000741;-62
2021/04/28 05:06:33;;;;;;;;;;;;;;;-144.99;62.24;52146.44;5044090;28;19952;-61
2021/04/28 05:08:59;;;;;;;;;;;;;;;-144.99;62.18;52181.09;5049419;28;19966;-61
2021/04/28 05:11:25;;;;;;;;;;;;;;;-144.99;61.93;52174.97;5048508;28;19960;-61
2021/04/28 05:13:51;;;;;;;;;;;;;;;-144.99;61.54;52191.28;5049048;28;20032;-62
2021/04/28 05:16:17;;;;;;;;;;;;;;;-144.99;61.46;52174.97;5047630;28;20041;-62
2021/04/28 05:18:43;;;;;;;;;;;;;;;-144.99;61.31;52187.19;5049482;28;19994;-62
2021/04/28 05:21:09;;;;;;;;;;;;;;;-144.99;60.95;52177.00;5045503;28;20470;-62
2021/04/28 05:23:35;;;;;;;;;;;;;;;-144.99;60.90;52205.53;5049157;28;20015;-62
2021/04/28 05:26:01;;;;;;;;;;;;;;;-144.99;60.55;52177.00;5046757;28;20444;-62
2021/04/28 05:28:29;;;;;;;;;;;;;;;-144.99;60.15;52193.31;5048716;28;19966;-62
2021/04/28 05:30:56;;;;;;;;;;;;;;;-144.99;59.74;52166.81;5047546;28;19954;-62
2021/04/28 05:33:21;;;;;;;;;;;;;;;-144.99;58.75;52197.41;5048592;28;19954;-62
2021/04/28 05:35:47;;;;;;;;;;;;;;;-144.99;58.61;52150.53;5046689;28;19954;-62
2021/04/28 05:38:13;;;;;;;;;;;;;;;-144.99;58.43;52170.91;5048572;28;19968;-63
2021/04/28 05:40:40;;;;;;;;;;;;;;;-144.99;58.02;52170.91;5047577;28;19948;-62
2021/04/28 05:43:06;;;;;;;;;;;;;;;-144.99;57.87;52154.59;5046799;28;19976;-60
2021/04/28 05:45:41;;;;;;;;;;;;;;;-144.99;57.10;52166.81;5047953;28;20407;-62
2021/04/28 05:48:10;;;;;;;;;;;;;;;-144.99;57.15;52162.75;5047937;28;19960;-61
2021/04/28 05:50:40;;;;;;;;;;;;;;;-144.99;56.93;52146.44;5048273;28;20417;-61
2021/04/28 05:53:09;;;;;;;;;;;;;;;-144.99;56.10;52109.75;5049362;28;19947;-63
2021/04/28 05:55:35;;;;;;;;;;;;;;;-144.99;56.16;52174.97;5048312;28;19950;-60
2021/04/28 05:58:02;;;;;;;;;;;;;;;-144.99;55.68;52162.75;5046564;28;19969;-63
2021/04/28 06:00:31;;;;;;;;;;;;;;;-144.99;55.51;52134.22;5046899;28;19954;-63
2021/04/28 06:02:57;;;;;;;;;;;;;;;-144.99;55.17;52126.06;5048359;28;19961;-61
2021/04/28 06:05:23;;;;;;;;;;;;;;;-144.99;54.47;52146.44;5047994;28;20370;-62
2021/04/28 06:07:51;;;;;;;;;;;;;;;-144.99;53.55;52201.47;5042820;28;20251;-63
2021/04/28 06:10:17;;;;;;;;;;;;;;;-144.99;53.51;52170.91;5047041;28;19956;-62
2021/04/28 06:12:44;;;;;;;;;;;;;;;-144.99;52.99;52154.59;5047426;28;20417;-62
2021/04/28 06:15:12;;;;;;;;;;;;;;;-144.99;52.82;52170.91;5047457;28;19959;-63
2021/04/28 06:17:39;;;;;;;;;;;;;;;-144.99;52.20;52187.19;5046848;28;19948;-63
2021/04/28 06:20:09;;;;;;;;;;;;;;;-144.99;51.43;52158.66;5047349;28;20285;-62
2021/04/28 06:22:35;;;;;;;;;;;;;;;-144.99;51.36;52170.91;5047584;28;19947;-63
2021/04/28 06:25:00;;;;;;;;;;;;;;;-144.99;50.92;52166.81;5047336;28;20385;-62
2021/04/28 06:27:26;;;;;;;;;;;;;;;-144.99;50.91;52134.22;5047552;28;20008;-60
2021/04/28 06:29:57;;;;;;;;;;;;;;;-144.99;50.25;52140.31;5042894;28;20065;-62
2021/04/28 06:32:24;;;;;;;;;;;;;;;-144.99;49.82;52174.97;5046921;28;19953;-62
2021/04/28 06:34:52;;;;;;;;;;;;;;;-144.99;49.33;52134.22;5047479;28;20148;-61
2021/04/28 06:37:24;;;;;;;;;;;;;;;-144.99;49.59;52183.13;5048273;28;19964;-61
2021/04/28 06:39:50;;;;;;;;;;;;;;;-144.99;49.17;52126.06;5048095;28;19967;-63
2021/04/28 06:42:19;;;;;;;;;;;;;;;-144.99;49.27;52121.97;5048319;28;20045;-63
2021/04/28 06:44:50;;;;;;;;;;;;;;;-144.99;49.60;52132.19;5038749;28;19962;-63
2021/04/28 06:47:19;;;;;;;;;;;;;;;-144.99;48.51;52117.91;5045783;28;20015;-63
2021/04/28 06:49:46;;;;;;;;;;;;;;;-144.99;48.50;52121.97;5042427;28;19970;-63
2021/04/28 06:52:14;;;;;;;;;;;;;;;-144.99;47.95;52152.56;5046619;28;19947;-62
2021/04/28 06:54:43;;;;;;;;;;;;;;;-144.99;47.82;52158.66;5046560;28;20561;-63
2021/04/28 06:57:11;;;;;;;;;;;;;;;-144.99;47.49;52187.19;5046935;28;20002;-64
2021/04/28 06:59:37;;;;;;;;;;;;;;;-144.99;46.91;52146.44;5046230;28;19966;-63
2021/04/28 07:02:06;;;;;;;;;;;;;;;-144.99;46.81;52121.97;5046728;28;19971;-63
2021/04/28 07:04:32;;;;;;;;;;;;;;;-144.99;46.69;52164.78;5043821;28;19968;-62
2021/04/28 07:06:59;;;;;;;;;;;;;;;-144.99;46.89;52126.06;5044714;28;19956;-63
2021/04/28 07:09:28;;;;;;;;;;;;;;;-144.99;47.22;52130.13;5046629;28;20472;-64
2021/04/28 07:11:54;;;;;;;;;;;;;;;-144.99;46.97;52105.69;5047216;28;20053;-63
2021/04/28 07:14:22;;;;;;;;;;;;;;;-144.99;46.07;52134.22;5046641;28;20324;-63
2021/04/28 07:16:48;;;;;;;;;;;;;;;-144.99;46.09;52113.84;5045523;28;19950;-63
2021/04/28 07:19:17;;;;;;;;;;;;;;;-144.99;45.36;52101.59;5046674;28;20485;-63
2021/04/28 07:21:46;;;;;;;;;;;;;;;-144.99;44.88;52097.53;5045692;28;20455;-63
2021/04/28 07:24:15;;;;;;;;;;;;;;;-144.99;44.37;52109.75;5043753;28;20378;-63
2021/04/28 07:26:41;;;;;;;;;;;;;;;-144.99;44.58;52142.38;5043012;28;19948;-63
2021/04/28 07:29:07;;;;;;;;;;;;;;;-144.99;43.79;52087.34;5045881;28;19976;-63
2021/04/28 07:31:36;;;;;;;;;;;;;;;-144.99;43.51;52111.78;5045992;28;20042;-63
2021/04/28 07:34:01;;;;;;;;;;;;;;;-144.99;42.00;52109.75;5044010;28;20034;-63
2021/04/28 07:36:30;;;;;;;;;;;;;;;-144.99;42.40;52138.28;5046385;28;20444;-63
2021/04/28 07:38:57;;;;;;;;;;;;;;;-144.99;42.84;52109.75;5046278;28;19969;-63
2021/04/28 07:41:24;;;;;;;;;;;;;;;-144.99;42.76;52121.97;5046564;28;20302;-63
2021/04/28 07:43:53;;;;;;;;;;;;;;;-144.99;41.82;52097.53;5045499;28;19970;-63
2021/04/28 07:46:21;;;;;;;;;;;;;;;-144.99;41.57;52117.91;5045588;28;19955;-64
2021/04/28 07:48:50;;;;;;;;;;;;;;;-144.99;41.13;52130.13;5045942;28;19975;-64
2021/04/28 07:51:18;;;;;;;;;;;;;;;-144.99;40.41;52085.31;5046323;28;20077;-63
2021/04/28 07:53:47;;;;;;;;;;;;;;;-144.99;40.14;52109.75;5046258;28;19963;-64
2021/04/28 07:56:16;;;;;;;;;;;;;;;-144.99;39.63;52126.06;5046044;28;19953;-63
2021/04/28 07:58:42;;;;;;;;;;;;;;;-144.99;39.41;52093.44;5046018;28;20015;-64
2021/04/28 08:01:08;;;;;;;;;;;;;;;-144.99;39.17;52064.91;5046352;28;19958;-64
2021/04/28 08:03:35;;;;;;;;;;;;;;;-144.99;38.75;52081.22;5044804;28;19971;-63
2021/04/28 08:06:01;;;;;;;;;;;;;;;-144.99;38.46;52126.06;5045853;28;19947;-62
2021/04/28 08:08:30;;;;;;;;;;;;;;;-144.99;38.28;52097.53;5046161;28;20003;-63
2021/04/28 08:10:59;;;;;;;;;;;;;;;-144.99;37.75;52109.75;5046392;28;19957;-64
2021/04/28 08:13:28;;;;;;;;;;;;;;;-144.99;38.09;52040.47;5045761;28;20545;-64
2021/04/28 08:15:57;;;;;;;;;;;;;;;-144.99;38.06;52097.53;5046252;28;19959;-63
2021/04/28 08:18:23;;;;;;;;;;;;;;;-144.99;38.01;52117.91;5046206;28;20017;-63
2021/04/28 08:20:52;;;;;;;;;;;;;;;-144.99;37.90;52058.81;5046063;28;19961;-63
2021/04/28 08:23:29;;;;;;;;;;;;;;;-144.99;37.20;52064.91;5044786;28;19965;-63
2021/04/28 08:25:55;;;;;;;;;;;;;;;-144.99;37.01;52089.38;5045588;28;19959;-63
2021/04/28 08:28:21;;;;;;;;;;;;;;;-144.99;36.61;52099.56;5045594;28;19976;-64
2021/04/28 08:30:50;;;;;;;;;;;;;;;-144.99;36.56;52101.59;5045349;28;19957;-63
2021/04/28 08:33:17;;;;;;;;;;;;;;;-144.99;35.99;52093.44;5045633;28;19949;-64
2021/04/28 08:35:43;;;;;;;;;;;;;;;-144.99;35.66;52069.00;5048156;28;20201;-63
2021/04/28 08:38:14;;;;;;;;;;;;;;;-144.99;35.57;52109.75;5049695;28;20564;-64
2021/04/28 08:40:43;;;;;;;;;;;;;;;-144.99;35.69;52085.31;5049330;28;20477;-63
2021/04/28 08:43:08;;;;;;;;;;;;;;;-144.99;35.01;52056.78;5049331;28;19963;-65
2021/04/28 08:45:43;;;;;;;;;;;;;;;-144.99;35.03;52103.66;5048799;28;20494;-62
2021/04/28 08:48:12;;;;;;;;;;;;;;;-144.99;35.01;52069.00;5049102;28;19964;-62
2021/04/28 08:50:39;;;;;;;;;;;;;;;-144.99;34.63;52058.81;5045422;28;19990;-62
2021/04/28 08:53:05;;;;;;;;;;;;;;;-144.99;34.74;52101.59;5046290;28;20445;-63
2021/04/28 08:55:34;;;;;;;;;;;;;;;-144.99;34.20;52097.53;5050732;28;19958;-63
2021/04/28 08:58:00;;;;;;;;;;;;;;;-144.99;33.90;52052.69;5051090;28;19975;-63
2021/04/28 09:00:26;;;;;;;;;;;;;;;-144.99;33.34;52058.81;5048777;28;19955;-63
2021/04/28 09:02:53;;;;;;;;;;;;;;;-144.99;33.66;52073.06;5048383;28;19968;-62
2021/04/28 09:05:22;;;;;;;;;;;;;;;-144.99;34.32;52085.31;4700667;28;10000298;-64
2021/04/28 09:07:49;;;;;;;;;;;;;;;-144.99;33.84;52064.91;5049640;28;19949;-62
2021/04/28 09:10:16;;;;;;;;;;;;;;;-144.99;33.84;52093.44;5048341;28;19961;-62
2021/04/28 09:12:52;;;;;;;;;;;;;;;-144.99;33.60;52044.53;5049334;28;19994;-63
2021/04/28 09:15:33;;;;;;;;;;;;;;;-144.99;34.54;52069.00;5048372;28;19969;-63
2021/04/28 09:17:59;;;;;;;;;;;;;;;-144.99;33.42;52089.38;5048875;28;20395;-63
2021/04/28 09:20:28;;;;;;;;;;;;;;;-144.99;33.51;52052.69;5047467;28;19953;-63
2021/04/28 09:23:07;;;;;;;;;;;;;;;-144.99;33.33;52066.97;5048529;28;20067;-63
2021/04/28 09:25:33;;;;;;;;;;;;;;;-144.99;33.18;52079.19;5048055;28;19972;-64
2021/04/28 09:28:19;;;;;;;;;;;;;;;-144.99;33.03;52069.00;5047679;28;20442;-64
2021/04/28 09:30:45;;;;;;;;;;;;;;;-144.99;32.97;52044.53;5048150;28;20055;-64
2021/04/28 09:33:14;;;;;;;;;;;;;;;-144.99;32.87;52044.53;5049103;28;19952;-64
2021/04/28 09:35:40;;;;;;;;;;;;;;;-144.99;32.15;52044.53;5047952;28;19954;-64
2021/04/28 09:38:07;;;;;;;;;;;;;;;-144.99;31.84;52077.16;5048748;28;19978;-64
2021/04/28 09:40:43;;;;;;;;;;;;;;;-144.99;31.03;52050.66;5048695;28;20250;-64
2021/04/28 09:43:13;;;;;;;;;;;;;;;-144.99;31.75;52073.06;5049132;28;19948;-65
2021/04/28 09:45:45;;;;;;;;;;;;;;;-144.99;31.23;52056.78;5046723;28;19970;-64
2021/04/28 09:48:15;;;;;;;;;;;;;;;-144.99;30.67;52024.16;5047778;28;19966;-64
2021/04/28 09:50:41;;;;;;;;;;;;;;;-144.99;30.24;52011.94;5048945;28;20453;-64
2021/04/28 09:53:07;;;;;;;;;;;;;;;-144.99;31.28;52026.19;5049514;28;19958;-63
2021/04/28 09:55:44;;;;;;;;;;;;;;;-144.99;30.03;52020.09;5048388;28;20396;-64
2021/04/28 09:58:13;;;;;;;;;;;;;;;-144.99;29.86;52048.63;5048734;28;20342;-64
2021/04/28 10:00:42;;;;;;;;;;;;;;;-144.99;30.72;52064.91;5047165;28;20055;-64
2021/04/28 10:03:11;;;;;;;;;;;;;;;-144.99;30.88;52048.63;5046641;28;20142;-63
2021/04/28 10:05:41;;;;;;;;;;;;;;;-144.99;29.98;52011.94;5047596;28;20062;-63
2021/04/28 10:08:12;;;;;;;;;;;;;;;-144.99;29.50;52028.22;5047633;28;19971;-64
2021/04/28 10:10:38;;;;;;;;;;;;;;;-144.99;29.33;52003.78;5047246;28;19950;-62
2021/04/28 10:13:08;;;;;;;;;;;;;;;-144.99;29.24;51993.59;5048104;28;19963;-62
2021/04/28 10:15:37;;;;;;;;;;;;;;;-144.99;29.35;51983.41;5048296;28;20002;-63
2021/04/28 10:18:04;;;;;;;;;;;;;;;-144.99;29.29;51981.38;5048327;28;19991;-63
2021/04/28 10:20:31;;;;;;;;;;;;;;;-144.99;29.44;51963.03;5041355;28;20479;-64
2021/04/28 10:23:04;;;;;;;;;;;;;;;-144.99;28.81;51983.41;5048014;28;19959;-63
2021/04/28 10:25:31;;;;;;;;;;;;;;;-144.99;29.20;51946.72;5042628;28;19973;-64
2021/04/28 10:28:00;;;;;;;;;;;;;;;-144.99;28.74;51987.47;5047675;28;19969;-63
2021/04/28 10:30:29;;;;;;;;;;;;;;;-144.99;28.35;51971.16;5045875;28;19961;-63
2021/04/28 10:32:55;;;;;;;;;;;;;;;-144.99;28.06;51952.81;5045916;28;19988;-64
2021/04/28 10:35:29;;;;;;;;;;;;;;;-144.99;28.25;51924.28;5047459;28;19957;-64
2021/04/28 10:37:58;;;;;;;;;;;;;;;-144.99;28.34;51930.41;5047362;28;20437;-62
2021/04/28 10:40:25;;;;;;;;;;;;;;;-144.99;28.65;51938.56;5046245;28;19959;-62
2021/04/28 10:42:52;;;;;;;;;;;;;;;-144.99;28.60;51914.09;5046143;28;20002;-64
2021/04/28 10:45:37;;;;;;;;;;;;;;;-144.99;28.21;51922.25;5047145;28;20304;-64
2021/04/28 10:48:03;;;;;;;;;;;;;;;-144.99;28.40;51897.81;5043464;28;20397;-64
2021/04/28 10:50:38;;;;;;;;;;;;;;;-144.99;28.11;51865.19;5045994;28;19961;-64
2021/04/28 10:53:07;;;;;;;;;;;;;;;-144.99;27.93;51869.28;5046249;28;20367;-64
2021/04/28 10:55:37;;;;;;;;;;;;;;;-144.99;27.51;51897.81;5047274;28;19956;-64
2021/04/28 10:58:05;;;;;;;;;;;;;;;-144.99;27.95;51869.28;5046741;28;20436;-63
2021/04/28 11:00:30;;;;;;;;;;;;;;;-144.99;28.18;51905.97;5046510;28;19950;-63
2021/04/28 11:02:57;;;;;;;;;;;;;;;-144.99;28.31;51903.91;5047921;28;19972;-63
2021/04/28 11:05:26;;;;;;;;;;;;;;;-144.99;27.86;51885.56;5047640;28;19979;-63
2021/04/28 11:07:52;;;;;;;;;;;;;;;-144.99;27.62;51832.59;5047834;28;20046;-65
2021/04/28 11:10:36;;;;;;;;;;;;;;;-144.99;27.72;51852.97;5046275;28;19973;-63
2021/04/28 11:13:02;;;;;;;;;;;;;;;-144.99;26.87;51808.13;5046938;28;20473;-63
2021/04/28 11:15:43;;;;;;;;;;;;;;;-144.99;27.03;51893.72;5047049;28;19959;-62
2021/04/28 11:18:39;;;;;;;;;;;;;;;-144.99;26.88;51844.81;5046272;28;20456;-64
2021/04/28 11:21:26;;;;;;;;;;;;;;;-144.99;27.21;51812.22;5046518;28;19984;-64
2021/04/28 11:24:10;;;;;;;;;;;;;;;-144.99;27.21;51885.56;5045264;28;20070;-63
2021/04/28 11:26:39;;;;;;;;;;;;;;;-144.99;27.34;51836.66;5046786;28;19960;-63
2021/04/28 11:29:06;;;;;;;;;;;;;;;-144.99;27.38;51834.63;5045412;28;20004;-64
2021/04/28 11:31:42;;;;;;;;;;;;;;;-144.99;27.75;51857.03;5046671;28;19950;-64
2021/04/28 11:34:30;;;;;;;;;;;;;;;-144.99;27.90;51848.91;5046915;28;19964;-64
2021/04/28 11:37:00;;;;;;;;;;;;;;;-144.99;27.88;51836.66;5041491;28;20053;-64
2021/04/28 11:39:33;;;;;;;;;;;;;;;-144.99;27.24;51861.13;5045495;28;20048;-63
2021/04/28 11:42:02;;;;;;;;;;;;;;;-144.99;27.32;51816.28;5046835;28;19956;-63
2021/04/28 11:44:28;;;;;;;;;;;;;;;-144.99;27.09;51836.66;5046454;28;19973;-63
2021/04/28 11:46:54;;;;;;;;;;;;;;;-144.99;27.47;51850.94;5045601;28;20347;-64
2021/04/28 11:49:20;;;;;;;;;;;;;;;-144.99;27.17;51857.03;5045191;28;19986;-64
2021/04/28 11:51:57;;;;;;;;;;;;;;;-144.99;26.99;51869.28;5045976;28;20490;-64
2021/04/28 11:54:23;;;;;;;;;;;;;;;-144.99;27.51;51850.94;5045963;28;19971;-65
2021/04/28 11:56:50;;;;;;;;;;;;;;;-144.99;27.27;51832.59;5045915;28;19959;-64
2021/04/28 11:59:19;;;;;;;;;;;;;;;-144.99;27.86;51844.81;5046721;28;20366;-64
2021/04/28 12:01:46;;;;;;;;;;;;;;;-144.99;27.23;51861.13;5047477;28;19968;-64
2021/04/28 12:04:14;;;;;;;;;;;;;;;-144.99;27.38;51832.59;5051623;28;20440;-64
2021/04/28 12:06:41;;;;;;;;;;;;;;;-144.99;27.27;51832.59;5046611;28;20047;-65
2021/04/28 12:09:12;;;;;;;;;;;;;;;-144.99;27.62;51836.66;5048722;28;19980;-63
2021/04/28 12:11:39;;;;;;;;;;;;;;;-144.99;27.56;51828.50;5052220;28;19962;-64
2021/04/28 12:14:06;;;;;;;;;;;;;;;-144.99;27.35;51869.28;5053311;28;19954;-65
2021/04/28 12:16:32;;;;;;;;;;;;;;;-144.99;27.56;51865.19;5052138;28;19964;-63
2021/04/28 12:19:33;;;;;;;;;;;;;;;-144.99;27.08;51897.81;5053849;28;19980;-63
2021/04/28 12:22:03;;;;;;;;;;;;;;;-144.99;27.98;51914.09;5050033;28;20107;-63
2021/04/28 12:24:30;;;;;;;;;;;;;;;-144.99;28.61;51934.50;5051082;28;20034;-62
2021/04/28 12:27:09;;;;;;;;;;;;;;;-144.99;28.07;51897.81;5045806;28;19962;-63
2021/04/28 12:29:37;;;;;;;;;;;;;;;-144.99;27.62;51905.97;5050986;28;20572;-62
2021/04/28 12:32:03;;;;;;;;;;;;;;;-144.99;27.67;51910.03;5051033;28;19998;-63